Time;durP1;ratioP1;P1;durP2;ratioP2;P2;SDS_P1;SDS_P2;PMS_P1;PMS_P2;Temp;Humidity;BMP_temperature;BMP_pressure;BME280_temperature;BME280_humidity;BME280_pressure;Samples;Min_cycle;Max_cycle;Signal;HPM_P1;HPM_P2
2022/01/13 00:00:51;;;;;;;32.40;15.40;;;;;;;-4.24;93.62;95718.16;5134390;27;20368;-71
2022/01/13 00:03:17;;;;;;;34.95;16.27;;;;;;;-4.32;95.06;95722.63;5134607;27;20037;-71
2022/01/13 00:05:42;;;;;;;34.03;17.02;;;;;;;-4.18;94.20;95726.56;5134127;27;20027;-71
2022/01/13 00:08:08;;;;;;;34.53;16.27;;;;;;;-3.83;92.09;95726.22;5134258;27;20019;-71
2022/01/13 00:10:33;;;;;;;33.17;15.82;;;;;;;-4.12;91.54;95728.56;5134578;27;20034;-71
2022/01/13 00:13:06;;;;;;;33.55;16.75;;;;;;;-4.12;92.40;95730.44;5134357;27;20091;-72
2022/01/13 00:16:12;;;;;;;36.85;18.48;;;;;;;-3.77;90.82;95739.91;5134397;27;20019;-71
2022/01/13 00:18:40;;;;;;;38.10;16.90;;;;;;;-3.63;89.75;95741.94;5133611;27;20066;-71
2022/01/13 00:21:29;;;;;;;35.45;18.38;;;;;;;-3.40;88.53;95747.09;5133018;27;20088;-71
2022/01/13 00:23:57;;;;;;;33.88;16.27;;;;;;;-3.82;88.99;95748.19;5134065;27;20034;-71
2022/01/13 00:26:25;;;;;;;34.25;16.42;;;;;;;-3.98;90.68;95748.38;5134171;27;20039;-71
2022/01/13 00:28:53;;;;;;;37.38;16.70;;;;;;;-3.99;90.42;95755.59;5133895;27;20119;-71
2022/01/13 00:31:25;;;;;;;37.42;17.80;;;;;;;-4.33;91.54;95752.91;5133807;27;20015;-71
2022/01/13 00:33:54;;;;;;;34.97;15.60;;;;;;;-4.59;93.35;95757.09;5133567;27;20027;-71
2022/01/13 00:36:22;;;;;;;36.70;16.70;;;;;;;-4.68;92.82;95759.25;5133632;27;20038;-71
2022/01/13 00:38:48;;;;;;;41.80;16.65;;;;;;;-4.88;94.17;95757.81;5132943;27;20432;-70
2022/01/13 00:41:13;;;;;;;42.42;18.63;;;;;;;-4.97;93.94;95758.81;5136393;27;20047;-71
2022/01/13 00:43:41;;;;;;;35.72;16.38;;;;;;;-5.01;93.46;95765.19;5135006;27;20047;-70
2022/01/13 00:46:08;;;;;;;35.30;16.55;;;;;;;-5.10;93.98;95770.72;5133922;27;20371;-71
2022/01/13 00:48:34;;;;;;;36.58;16.65;;;;;;;-5.14;94.84;95769.88;5132633;27;20467;-70
2022/01/13 00:51:00;;;;;;;40.78;17.58;;;;;;;-5.13;93.70;95768.78;5133614;27;20023;-69
2022/01/13 00:53:25;;;;;;;42.22;17.77;;;;;;;-5.24;95.33;95763.31;5134152;27;20027;-70
2022/01/13 00:56:00;;;;;;;38.85;18.08;;;;;;;-5.17;95.11;95768.72;5133640;27;20479;-70
2022/01/13 00:58:28;;;;;;;37.90;17.95;;;;;;;-5.03;93.78;95770.84;5132694;27;20041;-70
2022/01/13 01:00:56;;;;;;;36.03;16.65;;;;;;;-5.00;94.02;95778.06;5133693;27;20055;-70
2022/01/13 01:03:22;;;;;;;36.72;17.27;;;;;;;-5.19;93.50;95778.16;5133492;27;20085;-70
2022/01/13 01:05:47;;;;;;;40.90;16.02;;;;;;;-5.20;94.63;95773.97;5133489;27;20088;-71
2022/01/13 01:08:13;;;;;;;32.78;15.75;;;;;;;-5.20;94.42;95779.25;5133557;27;20035;-71
2022/01/13 01:10:40;;;;;;;38.03;17.50;;;;;;;-5.36;95.42;95774.81;5134292;27;20039;-71
2022/01/13 01:13:15;;;;;;;39.42;17.08;;;;;;;-5.29;95.11;95780.25;5133416;27;20023;-71
2022/01/13 01:15:45;;;;;;;45.53;19.08;;;;;;;-5.21;95.04;95783.03;5133777;27;20030;-70
2022/01/13 01:18:30;;;;;;;41.30;18.45;;;;;;;-5.30;95.15;95784.00;5132454;27;20132;-71
2022/01/13 01:21:32;;;;;;;39.03;17.38;;;;;;;-5.25;95.50;95782.94;5133539;27;20051;-69
2022/01/13 01:31:53;;;;;;;41.67;17.38;;;;;;;-5.41;95.71;95788.38;5136750;27;20054;-70
2022/01/13 01:37:17;;;;;;;40.00;17.75;;;;;;;-5.31;95.98;95794.97;5137814;27;20070;-70
2022/01/13 01:39:46;;;;;;;43.55;18.60;;;;;;;-5.23;94.98;95787.91;5137069;27;20065;-71
2022/01/13 01:42:12;;;;;;;45.55;19.00;;;;;;;-5.03;93.37;95786.72;5136863;27;20072;-71
2022/01/13 01:44:42;;;;;;;39.45;18.70;;;;;;;-5.12;93.25;95791.50;5136878;27;20094;-71
2022/01/13 01:47:10;;;;;;;40.33;16.80;;;;;;;-5.28;92.98;95787.09;5137428;27;20038;-71
2022/01/13 01:49:42;;;;;;;36.80;17.20;;;;;;;-5.16;92.19;95788.78;5136770;27;20046;-70
2022/01/13 01:52:10;;;;;;;36.63;17.40;;;;;;;-5.18;91.90;95806.13;5135840;27;20110;-71
2022/01/13 01:54:36;;;;;;;35.28;17.50;;;;;;;-5.04;90.61;95793.16;5136753;27;20027;-71
2022/01/13 01:57:03;;;;;;;37.53;16.60;;;;;;;-5.12;90.96;95786.19;5136691;27;20031;-70
2022/01/13 01:59:31;;;;;;;30.52;14.77;;;;;;;-5.31;91.29;95782.47;5135639;27;20068;-70
2022/01/13 02:01:58;;;;;;;40.35;18.73;;;;;;;-5.47;92.36;95773.88;5136511;27;20444;-70
2022/01/13 02:04:26;;;;;;;40.03;18.33;;;;;;;-5.19;91.78;95772.84;5136409;27;20035;-70
2022/01/13 02:06:53;;;;;;;38.05;17.95;;;;;;;-5.08;91.36;95773.78;5136910;27;20087;-71
2022/01/13 02:09:20;;;;;;;34.95;17.00;;;;;;;-5.20;91.86;95774.72;5136582;27;20485;-71
2022/01/13 02:11:50;;;;;;;38.67;17.92;;;;;;;-5.08;91.33;95773.78;5136295;27;20482;-71
2022/01/13 02:17:14;;;;;;;38.05;16.70;;;;;;;-5.19;90.25;95768.31;5136343;27;20039;-71
2022/01/13 02:19:45;;;;;;;38.83;17.88;;;;;;;-5.01;89.71;95781.84;5136597;27;20034;-71
2022/01/13 02:22:10;;;;;;;37.00;16.38;;;;;;;-5.39;90.64;95769.50;5136384;27;20026;-72
2022/01/13 02:24:37;;;;;;;37.53;16.67;;;;;;;-5.43;90.70;95780.78;5137017;27;20035;-70
2022/01/13 02:27:04;;;;;;;40.67;18.48;;;;;;;-5.30;89.81;95778.72;5136617;27;20112;-70
2022/01/13 02:29:29;;;;;;;37.35;15.07;;;;;;;-5.54;90.65;95773.75;5135050;27;20030;-70
2022/01/13 02:31:55;;;;;;;38.58;17.27;;;;;;;-5.35;90.31;95781.66;5136254;27;20023;-70
2022/01/13 02:34:21;;;;;;;36.15;16.85;;;;;;;-5.46;90.61;95781.47;5136034;27;20035;-70
2022/01/13 02:36:50;;;;;;;41.45;19.02;;;;;;;-5.16;89.74;95780.84;5136495;27;20037;-70
2022/01/13 02:39:15;;;;;;;35.17;16.98;;;;;;;-5.28;89.69;95787.09;5135956;27;20489;-69
2022/01/13 02:41:41;;;;;;;29.67;12.98;;;;;;;-5.68;90.56;95779.56;5135794;27;20062;-70
2022/01/13 02:44:19;;;;;;;35.58;14.27;;;;;;;-5.62;91.30;95788.72;5134569;27;20055;-69
2022/01/13 02:49:16;;;;;;;33.83;15.98;;;;;;;-5.37;90.68;95791.84;5135708;27;20131;-70
2022/01/13 02:51:44;;;;;;;41.13;18.73;;;;;;;-5.53;90.74;95785.88;5135659;27;20424;-70
2022/01/13 02:54:10;;;;;;;42.35;16.88;;;;;;;-5.43;89.93;95785.28;5134650;27;20019;-70
2022/01/13 02:56:36;;;;;;;37.72;17.70;;;;;;;-5.31;90.17;95787.03;5135627;27;20106;-71
2022/01/13 02:59:04;;;;;;;39.47;17.05;;;;;;;-5.66;90.94;95787.91;5135597;27;20029;-71
2022/01/13 03:01:30;;;;;;;34.38;17.08;;;;;;;-5.60;90.08;95784.63;5135320;27;20027;-70
2022/01/13 03:03:55;;;;;;;35.15;17.33;;;;;;;-5.56;90.77;95765.41;5134387;27;20016;-70
2022/01/13 03:06:32;;;;;;;33.75;15.40;;;;;;;-5.72;90.05;95768.91;5134344;27;20106;-70
2022/01/13 03:08:57;;;;;;;39.53;17.25;;;;;;;-5.47;89.55;95777.31;5135838;27;20042;-70
2022/01/13 03:11:30;;;;;;;39.88;17.75;;;;;;;-5.36;88.53;95776.72;5135539;27;20448;-69
2022/01/13 03:13:56;;;;;;;34.25;16.60;;;;;;;-5.36;88.22;95769.53;5134224;27;20023;-70
2022/01/13 03:16:21;;;;;;;36.42;16.45;;;;;;;-5.36;87.46;95763.47;5135669;27;20114;-70
2022/01/13 03:18:47;;;;;;;38.35;16.08;;;;;;;-5.67;87.97;95771.28;5135090;27;20030;-70
2022/01/13 03:21:12;;;;;;;34.63;15.13;;;;;;;-5.72;87.30;95768.91;5135236;27;20539;-70
2022/01/13 03:23:38;;;;;;;36.80;16.02;;;;;;;-5.72;88.54;95768.16;5135291;27;20023;-71
2022/01/13 03:26:04;;;;;;;37.65;16.83;;;;;;;-5.92;88.52;95757.56;5135243;27;20447;-71
2022/01/13 03:28:50;;;;;;;33.83;14.88;;;;;;;-5.82;87.81;95770.25;5135184;27;20476;-71
2022/01/13 03:31:17;;;;;;;35.83;15.27;;;;;;;-5.84;87.16;95782.28;5134917;27;20034;-70
2022/01/13 03:33:43;;;;;;;31.05;14.77;;;;;;;-6.21;87.33;95785.38;5134878;27;20111;-71
2022/01/13 03:36:09;;;;;;;32.97;13.43;;;;;;;-6.25;87.59;95774.72;5134790;27;20050;-71
2022/01/13 03:38:35;;;;;;;27.67;12.15;;;;;;;-6.21;87.57;95778.19;5134749;27;20062;-70
2022/01/13 03:41:01;;;;;;;31.30;15.35;;;;;;;-6.02;86.28;95792.56;5134632;27;20106;-71
2022/01/13 03:43:26;;;;;;;30.13;14.43;;;;;;;-5.83;85.97;95789.13;5134487;27;20540;-70
2022/01/13 03:45:52;;;;;;;33.15;14.82;;;;;;;-5.68;85.59;95798.84;5134915;27;20023;-71
2022/01/13 03:48:17;;;;;;;33.47;13.68;;;;;;;-5.73;84.87;95788.53;5135029;27;20026;-71
2022/01/13 03:50:44;;;;;;;34.15;15.55;;;;;;;-6.01;85.02;95778.97;5134474;27;20076;-71
2022/01/13 03:53:27;;;;;;;30.38;13.32;;;;;;;-6.00;85.38;95785.81;5134085;27;20527;-70
2022/01/13 03:56:30;;;;;;;31.55;13.82;;;;;;;-5.81;84.68;95789.50;5135552;27;20047;-71
2022/01/13 03:59:16;;;;;;;30.80;14.40;;;;;;;-6.04;84.55;95784.19;5134389;27;20019;-71
2022/01/13 04:02:05;;;;;;;27.50;13.48;;;;;;;-5.88;84.74;95790.13;5126838;27;20039;-71
2022/01/13 04:04:39;;;;;;;26.13;12.60;;;;;;;-6.17;85.06;95786.22;5134482;27;20032;-70
2022/01/13 04:07:07;;;;;;;35.88;13.40;;;;;;;-6.21;85.66;95785.38;5134643;27;20110;-69
2022/01/13 04:09:33;;;;;;;27.98;14.00;;;;;;;-6.02;85.11;95798.59;5134228;27;20474;-70
2022/01/13 04:12:03;;;;;;;31.90;14.55;;;;;;;-5.87;84.32;95799.63;5134208;27;20019;-71
2022/01/13 04:14:37;;;;;;;29.58;14.48;;;;;;;-6.13;84.64;95808.19;5134536;27;20034;-69
2022/01/13 04:17:03;;;;;;;29.45;13.65;;;;;;;-5.90;84.33;95815.41;5133156;27;20039;-70
2022/01/13 04:19:29;;;;;;;29.80;13.77;;;;;;;-5.86;83.47;95822.31;5133983;27;20019;-70
2022/01/13 04:21:54;;;;;;;28.13;11.88;;;;;;;-6.18;84.25;95827.72;5135073;27;20035;-69
2022/01/13 04:24:20;;;;;;;32.60;13.77;;;;;;;-6.07;84.16;95821.91;5134140;27;20031;-70
2022/01/13 04:26:46;;;;;;;29.98;13.88;;;;;;;-6.02;84.12;95840.16;5134196;27;20079;-70
2022/01/13 04:31:39;;;;;;;32.50;14.40;;;;;;;-6.11;84.12;95837.69;5134303;27;20023;-70
2022/01/13 04:34:04;;;;;;;29.10;12.50;;;;;;;-6.24;84.21;95854.75;5132857;27;20509;-70
2022/01/13 04:36:30;;;;;;;28.88;13.30;;;;;;;-6.11;84.54;95848.25;5133899;27;20023;-70
2022/01/13 04:38:56;;;;;;;31.85;14.32;;;;;;;-6.09;84.38;95848.69;5134349;27;20023;-70
2022/01/13 04:41:35;;;;;;;31.70;12.98;;;;;;;-6.00;83.84;95838.69;5134012;27;20355;-71
2022/01/13 04:44:12;;;;;;;28.40;13.52;;;;;;;-5.84;83.16;95835.19;5133704;27;20062;-70
2022/01/13 04:46:38;;;;;;;26.88;12.95;;;;;;;-5.74;82.61;95834.63;5134140;27;20031;-70
2022/01/13 04:49:05;;;;;;;30.65;14.15;;;;;;;-5.64;81.68;95835.97;5135143;27;20049;-70
2022/01/13 04:51:31;;;;;;;27.15;12.38;;;;;;;-5.97;81.88;95816.81;5132762;28;20031;-70
2022/01/13 04:53:57;;;;;;;26.15;12.20;;;;;;;-5.84;81.53;95819.31;5133781;27;20046;-71
2022/01/13 04:58:54;;;;;;;26.33;13.10;;;;;;;-6.02;82.54;95830.31;5135568;27;20051;-71
2022/01/13 05:01:20;;;;;;;25.05;12.43;;;;;;;-6.01;82.75;95831.88;5134146;27;20028;-70
2022/01/13 05:03:45;;;;;;;31.55;13.23;;;;;;;-6.15;82.88;95826.28;5132634;28;20030;-70
2022/01/13 05:06:13;;;;;;;26.63;12.57;;;;;;;-6.08;83.13;95815.88;5135261;27;20091;-71
2022/01/13 05:08:38;;;;;;;31.38;13.10;;;;;;;-6.18;82.83;95827.72;5137983;27;20080;-70
2022/01/13 05:11:04;;;;;;;34.97;14.10;;;;;;;-6.02;83.08;95832.97;5138295;27;20027;-71
2022/01/13 05:13:29;;;;;;;24.52;12.18;;;;;;;-6.23;82.96;95835.16;5138043;27;20098;-70
2022/01/13 05:15:55;;;;;;;33.83;12.75;;;;;;;-6.35;83.40;95842.09;5136853;27;20112;-71
2022/01/13 05:19:12;;;;;;;28.90;13.25;;;;;;;-6.34;83.49;95846.28;5137767;27;20103;-70
2022/01/13 05:21:20;;;;;;;30.20;13.23;;;;;;;-6.23;82.63;95851.81;5134652;27;20047;-70
2022/01/13 05:23:45;;;;;;;31.98;12.55;;;;;;;-6.24;82.66;95849.47;5138210;27;20023;-71
2022/01/13 05:26:12;;;;;;;25.40;12.52;;;;;;;-6.05;82.38;95844.25;5137716;27;20106;-70
2022/01/13 05:28:40;;;;;;;26.42;12.35;;;;;;;-6.26;83.30;95846.44;5137633;27;20030;-70
2022/01/13 05:31:06;;;;;;;30.23;15.18;;;;;;;-6.09;82.98;95861.91;5137647;27;20440;-71
2022/01/13 05:33:31;;;;;;;27.55;12.75;;;;;;;-6.01;82.28;95855.66;5137017;27;20026;-71
2022/01/13 05:35:57;;;;;;;28.88;12.40;;;;;;;-6.33;82.95;95863.66;5136961;27;20030;-70
2022/01/13 05:38:22;;;;;;;28.42;13.27;;;;;;;-6.44;82.91;95853.97;5138342;27;20079;-71
2022/01/13 05:40:47;;;;;;;28.77;12.82;;;;;;;-6.43;83.34;95874.75;5138065;27;20027;-71
2022/01/13 05:43:13;;;;;;;30.60;14.07;;;;;;;-6.18;82.48;95866.63;5140310;27;20042;-71
2022/01/13 05:45:39;;;;;;;33.90;15.25;;;;;;;-5.91;81.63;95867.53;5147921;27;20027;-71
2022/01/13 05:48:05;;;;;;;34.10;13.93;;;;;;;-6.13;81.91;95877.69;5146875;27;20463;-70
2022/01/13 05:50:31;;;;;;;31.17;13.98;;;;;;;-6.17;82.23;95876.09;5148579;27;20027;-71
2022/01/13 05:52:57;;;;;;;31.40;13.18;;;;;;;-6.37;82.56;95883.94;5152967;27;20468;-71
2022/01/13 05:55:23;;;;;;;26.95;13.10;;;;;;;-6.16;82.35;95882.88;5152818;27;20048;-71
2022/01/13 05:57:49;;;;;;;23.27;9.88;;;;;;;-6.58;82.94;95870.28;5152390;27;20092;-71
2022/01/13 06:00:18;;;;;;;29.10;13.63;;;;;;;-6.45;82.83;95882.25;5151663;27;20444;-71
2022/01/13 06:02:44;;;;;;;25.80;11.57;;;;;;;-6.69;83.71;95888.50;5151097;27;20027;-69
2022/01/13 06:05:11;;;;;;;26.42;12.88;;;;;;;-6.50;83.62;95890.47;5151110;27;20022;-69
2022/01/13 06:07:37;;;;;;;27.42;12.70;;;;;;;-6.60;83.01;95885.69;5148373;27;20019;-69
2022/01/13 06:10:05;;;;;;;27.50;13.05;;;;;;;-6.39;82.67;95891.47;5149378;27;20030;-70
2022/01/13 06:12:36;;;;;;;26.23;12.43;;;;;;;-6.45;82.61;95887.53;5147911;27;20341;-69
2022/01/13 06:15:11;;;;;;;33.50;14.02;;;;;;;-6.30;81.44;95893.91;5146469;27;20102;-69
2022/01/13 06:17:38;;;;;;;29.38;12.73;;;;;;;-6.29;81.09;95893.56;5148087;27;20019;-70
2022/01/13 06:20:05;;;;;;;30.02;13.32;;;;;;;-6.43;81.61;95901.19;5146833;27;20030;-71
2022/01/13 06:22:31;;;;;;;28.88;13.13;;;;;;;-6.28;81.06;95897.75;5146800;27;20068;-71
2022/01/13 06:24:56;;;;;;;30.40;12.82;;;;;;;-6.41;81.28;95904.25;5149081;27;20015;-70
2022/01/13 06:27:23;;;;;;;27.17;11.65;;;;;;;-6.34;80.53;95904.44;5146779;27;20027;-69
2022/01/13 06:29:50;;;;;;;28.30;13.10;;;;;;;-6.35;80.85;95910.81;5148387;27;20106;-70
2022/01/13 06:32:16;;;;;;;29.42;13.77;;;;;;;-6.63;81.43;95913.53;5148255;27;20026;-69
2022/01/13 06:34:41;;;;;;;26.20;11.48;;;;;;;-6.55;80.66;95920.53;5145557;27;20026;-70
2022/01/13 06:37:07;;;;;;;25.65;13.13;;;;;;;-6.66;81.45;95930.09;5145340;27;20447;-70
2022/01/13 06:39:32;;;;;;;24.90;11.45;;;;;;;-6.82;81.75;95927.41;5140272;27;20035;-70
2022/01/13 06:41:58;;;;;;;32.80;13.35;;;;;;;-6.80;82.23;95927.84;5136264;27;20015;-71
2022/01/13 06:44:23;;;;;;;32.38;13.80;;;;;;;-6.71;82.37;95917.88;5135969;27;20043;-70
2022/01/13 06:46:49;;;;;;;26.15;12.68;;;;;;;-6.60;81.66;95927.94;5136399;27;20027;-70
2022/01/13 06:49:14;;;;;;;32.08;13.00;;;;;;;-6.84;81.70;95927.00;5137448;27;20087;-70
2022/01/13 06:51:40;;;;;;;29.75;12.93;;;;;;;-6.68;81.73;95938.34;5136447;27;20026;-70
2022/01/13 06:54:06;;;;;;;25.30;10.60;;;;;;;-6.99;81.91;95928.50;5136742;27;20492;-70
2022/01/13 06:56:31;;;;;;;27.27;11.45;;;;;;;-7.09;82.01;95940.31;5136675;27;20023;-70
2022/01/13 06:58:57;;;;;;;26.55;11.98;;;;;;;-6.89;81.82;95937.81;5134680;27;20031;-71
2022/01/13 07:01:23;;;;;;;29.98;12.77;;;;;;;-6.68;80.98;95942.84;5135711;27;20090;-71
2022/01/13 07:03:49;;;;;;;30.30;12.23;;;;;;;-6.76;81.30;95955.13;5135887;27;20023;-71
2022/01/13 07:06:15;;;;;;;26.10;10.35;;;;;;;-7.07;82.25;95961.88;5136086;27;20045;-71
2022/01/13 07:08:41;;;;;;;27.20;11.55;;;;;;;-7.00;82.30;95948.84;5136553;27;20023;-70
2022/01/13 07:11:06;;;;;;;27.35;12.82;;;;;;;-6.88;81.96;95965.75;5134853;27;20051;-68
2022/01/13 07:13:32;;;;;;;25.00;11.75;;;;;;;-6.92;81.99;95970.94;5135608;27;20027;-70
2022/01/13 07:16:00;;;;;;;20.90;10.15;;;;;;;-7.04;81.52;95966.47;5135206;27;20011;-69
2022/01/13 07:18:27;;;;;;;32.30;11.95;;;;;;;-6.92;81.74;95965.66;5135603;27;20043;-70
2022/01/13 07:20:53;;;;;;;27.48;12.32;;;;;;;-6.62;80.92;95965.28;5135641;27;20050;-71
2022/01/13 07:23:18;;;;;;;35.10;13.20;;;;;;;-6.87;81.70;95964.63;5135497;27;20456;-71
2022/01/13 07:25:43;;;;;;;25.70;11.20;;;;;;;-6.98;81.29;95954.56;5135824;27;20050;-71
2022/01/13 07:28:10;;;;;;;19.58;8.85;;;;;;;-7.15;80.76;95958.25;5133729;27;20027;-71
2022/01/13 07:30:36;;;;;;;30.38;13.02;;;;;;;-6.92;81.51;95962.25;5135522;27;20012;-71
2022/01/13 07:33:02;;;;;;;20.77;10.95;;;;;;;-7.00;80.57;95959.41;5134079;27;20026;-68
2022/01/13 07:35:27;;;;;;;31.58;11.07;;;;;;;-6.96;80.69;95965.53;5134041;27;20064;-70
2022/01/13 07:37:53;;;;;;;29.58;13.65;;;;;;;-6.74;80.64;95968.00;5134985;27;20023;-69
2022/01/13 07:40:19;;;;;;;36.78;12.38;;;;;;;-6.74;79.66;95974.03;5135104;27;20452;-69
2022/01/13 07:42:46;;;;;;;25.52;10.73;;;;;;;-6.75;79.34;95967.19;5134774;27;20034;-70
2022/01/13 07:45:13;;;;;;;21.45;8.52;;;;;;;-6.87;79.34;95981.25;5134447;27;20075;-70
2022/01/13 07:47:40;;;;;;;26.13;11.50;;;;;;;-6.67;78.90;95976.84;5134889;27;20098;-69
2022/01/13 07:50:08;;;;;;;30.10;12.57;;;;;;;-6.51;78.94;95990.09;5135214;27;20098;-69
2022/01/13 07:52:34;;;;;;;28.02;12.88;;;;;;;-6.74;79.49;96005.72;5134752;27;20007;-69
2022/01/13 07:54:59;;;;;;;24.70;11.75;;;;;;;-6.61;79.34;96001.16;5134912;27;20058;-70
2022/01/13 07:57:25;;;;;;;31.13;12.48;;;;;;;-6.58;78.14;96018.22;5134562;27;20481;-68
2022/01/13 07:59:52;;;;;;;25.90;11.20;;;;;;;-6.54;77.05;96024.34;5134972;27;20023;-69
2022/01/13 08:02:18;;;;;;;23.35;10.50;;;;;;;-6.66;76.95;96031.22;5134278;27;20019;-69
2022/01/13 08:04:44;;;;;;;23.08;10.57;;;;;;;-6.77;76.53;96011.69;5133251;27;20030;-70
2022/01/13 08:07:10;;;;;;;22.02;10.25;;;;;;;-6.87;77.29;96014.81;5133009;27;20171;-69
2022/01/13 08:09:35;;;;;;;18.45;9.32;;;;;;;-6.67;77.14;96024.38;5133005;27;20019;-70
2022/01/13 08:12:01;;;;;;;24.77;11.23;;;;;;;-6.83;77.76;96018.31;5134139;27;20023;-67
2022/01/13 08:14:26;;;;;;;22.17;9.48;;;;;;;-6.55;76.79;96030.75;5134123;27;20026;-68
2022/01/13 08:16:59;;;;;;;27.92;10.60;;;;;;;-6.75;76.26;96032.47;5134273;27;20023;-69
2022/01/13 08:22:25;;;;;;;25.75;11.32;;;;;;;-6.92;76.62;96038.81;5112342;28;20133;-69
2022/01/13 08:24:51;;;;;;;30.77;11.30;;;;;;;-6.89;76.55;96048.72;5125795;27;20035;-70
2022/01/13 08:27:16;;;;;;;21.45;10.63;;;;;;;-7.03;75.66;96046.44;5134684;27;20444;-69
2022/01/13 08:29:41;;;;;;;16.95;7.72;;;;;;;-7.20;75.39;96045.63;5134152;27;20023;-70
2022/01/13 08:32:07;;;;;;;20.45;7.88;;;;;;;-7.27;74.93;96055.19;5134016;27;20090;-69
2022/01/13 08:34:33;;;;;;;18.48;8.05;;;;;;;-7.33;76.05;96052.03;5134112;27;20075;-69
2022/01/13 08:36:58;;;;;;;15.13;6.80;;;;;;;-7.42;75.95;96046.84;5133950;27;20401;-70
2022/01/13 08:39:24;;;;;;;15.15;6.72;;;;;;;-7.31;76.03;96055.06;5135266;27;20096;-69
2022/01/13 08:41:50;;;;;;;21.55;9.05;;;;;;;-7.07;75.68;96048.97;5137760;27;20444;-69
2022/01/13 08:44:16;;;;;;;19.30;9.05;;;;;;;-7.28;76.15;96043.09;5138020;27;20134;-70
2022/01/13 08:46:42;;;;;;;16.30;7.97;;;;;;;-7.23;75.93;96051.53;5143331;28;20090;-71
2022/01/13 08:49:09;;;;;;;22.77;10.93;;;;;;;-6.80;75.10;96046.69;5145177;28;20042;-69
2022/01/13 08:51:35;;;;;;;21.13;10.30;;;;;;;-6.92;75.46;96054.66;5150737;27;20026;-70
2022/01/13 08:54:01;;;;;;;20.42;9.93;;;;;;;-6.96;75.48;96055.31;5147276;27;20027;-69
2022/01/13 08:56:26;;;;;;;19.67;8.80;;;;;;;-7.28;75.08;96054.41;5141011;27;20435;-69
2022/01/13 08:58:52;;;;;;;22.05;9.32;;;;;;;-7.17;76.22;96052.06;5136570;27;20030;-76
2022/01/13 09:01:17;;;;;;;21.27;8.82;;;;;;;-7.02;75.63;96051.41;5135434;27;20023;-70
2022/01/13 09:03:43;;;;;;;26.20;9.02;;;;;;;-6.88;73.54;96034.41;5133530;28;20103;-71
2022/01/13 09:06:08;;;;;;;17.95;8.75;;;;;;;-6.71;72.99;96044.66;5134745;27;20516;-70
2022/01/13 09:08:34;;;;;;;21.77;8.55;;;;;;;-6.34;71.45;96047.16;5134610;27;20432;-69
2022/01/13 09:11:00;;;;;;;18.55;8.57;;;;;;;-6.52;72.03;96040.63;5134055;27;20023;-69
2022/01/13 09:13:26;;;;;;;25.15;9.63;;;;;;;-6.51;71.19;96053.50;5134206;27;20077;-71
2022/01/13 09:15:58;;;;;;;19.20;8.77;;;;;;;-6.49;70.51;96040.72;5132555;27;20023;-69
2022/01/13 09:21:13;;;;;;;23.65;10.55;;;;;;;-6.21;71.41;96039.13;5133732;27;20032;-69
2022/01/13 09:23:39;;;;;;;24.77;10.65;;;;;;;-6.17;70.55;96040.75;5133564;27;20019;-72
2022/01/13 09:26:05;;;;;;;19.17;8.73;;;;;;;-6.62;71.91;96031.31;5133466;27;20065;-70
2022/01/13 09:28:31;;;;;;;21.30;9.43;;;;;;;-6.50;72.41;96014.66;5133341;27;20030;-69
2022/01/13 09:30:56;;;;;;;17.80;8.20;;;;;;;-6.57;72.38;96011.81;5133858;27;20011;-72
2022/01/13 09:33:22;;;;;;;26.05;11.00;;;;;;;-6.43;72.49;96006.88;5133490;27;20498;-75
2022/01/13 09:35:48;;;;;;;25.27;10.43;;;;;;;-5.96;71.52;96008.75;5132596;27;20017;-74
2022/01/13 09:38:13;;;;;;;25.77;10.57;;;;;;;-6.06;71.11;96013.81;5133560;27;20046;-73
2022/01/13 09:40:43;;;;;;;18.02;7.68;;;;;;;-5.67;68.59;96008.59;5133585;27;20034;-74
2022/01/13 09:43:09;;;;;;;29.85;11.15;;;;;;;-5.13;67.24;96004.44;5133529;27;20046;-75
2022/01/13 09:45:35;;;;;;;25.45;11.13;;;;;;;-5.03;66.34;96003.91;5133562;27;20110;-75
2022/01/13 09:48:01;;;;;;;22.13;10.35;;;;;;;-5.29;66.81;96001.84;5133712;27;20410;-74
2022/01/13 09:50:27;;;;;;;25.15;10.43;;;;;;;-5.15;66.52;96001.41;5133150;27;20079;-75
2022/01/13 09:52:53;;;;;;;26.48;10.00;;;;;;;-4.70;65.10;96005.28;5135818;27;20019;-75
2022/01/13 09:55:19;;;;;;;21.35;10.02;;;;;;;-5.43;67.10;96002.31;5136933;27;20024;-75
2022/01/13 09:57:49;;;;;;;18.98;9.63;;;;;;;-5.39;65.94;95987.28;5136787;27;20446;-74
2022/01/13 10:00:19;;;;;;;23.83;10.90;;;;;;;-5.47;66.23;95980.31;5136905;27;20101;-74
2022/01/13 10:02:45;;;;;;;25.25;10.82;;;;;;;-5.38;66.33;95966.91;5137201;27;20047;-73
2022/01/13 10:05:11;;;;;;;25.92;11.00;;;;;;;-5.21;66.61;95945.28;5136667;27;20471;-73
2022/01/13 10:07:41;;;;;;;27.67;11.90;;;;;;;-4.82;65.70;95944.50;5136749;27;20022;-74
2022/01/13 10:10:15;;;;;;;19.67;8.82;;;;;;;-5.01;66.51;95940.75;5136461;27;20059;-74
2022/01/13 10:12:44;;;;;;;21.65;9.30;;;;;;;-4.71;65.33;95932.19;5137202;27;20044;-74
2022/01/13 10:18:00;;;;;;;25.38;11.07;;;;;;;-3.29;60.73;95955.09;5136726;27;20042;-75
2022/01/13 10:20:26;;;;;;;18.67;9.45;;;;;;;-4.06;61.00;95946.50;5136432;27;20451;-74
2022/01/13 10:22:53;;;;;;;21.00;10.27;;;;;;;-2.61;58.58;95959.63;5136227;27;20102;-73
2022/01/13 10:25:33;;;;;;;23.90;10.68;;;;;;;-2.74;57.75;95941.28;5136999;27;20472;-73
2022/01/13 10:28:20;;;;;;;22.38;10.82;;;;;;;-1.22;53.10;95937.75;5136488;27;20034;-74
2022/01/13 10:30:49;;;;;;;23.55;10.65;;;;;;;-0.67;50.59;95925.34;5136828;27;20076;-74
2022/01/13 10:33:27;;;;;;;21.45;9.98;;;;;;;-2.46;54.56;95918.00;5136640;27;20045;-73
2022/01/13 10:36:04;;;;;;;23.10;10.35;;;;;;;-2.14;54.90;95917.47;5137552;27;20157;-72
2022/01/13 10:38:49;;;;;;;20.15;10.18;;;;;;;-0.89;52.13;95919.22;5137038;27;20042;-73
2022/01/13 10:41:30;;;;;;;23.08;10.85;;;;;;;0.54;47.47;95932.94;5136133;27;20031;-73
2022/01/13 10:44:21;;;;;;;21.75;9.43;;;;;;;-2.22;52.51;95912.09;5135981;27;20043;-73
2022/01/13 10:47:01;;;;;;;24.08;10.70;;;;;;;-0.67;50.52;95906.69;5136112;27;20079;-74
2022/01/13 10:49:32;;;;;;;20.55;9.70;;;;;;;-1.17;49.91;95891.34;5136320;27;20103;-74
2022/01/13 10:52:16;;;;;;;20.45;10.82;;;;;;;-1.12;51.55;95903.53;5137039;27;20038;-74
2022/01/13 10:54:42;;;;;;;22.42;11.35;;;;;;;-0.91;50.66;95887.59;5135858;27;20064;-74
2022/01/13 10:57:18;;;;;;;20.88;10.38;;;;;;;-1.83;53.37;95880.78;5134562;27;20023;-74
2022/01/13 10:59:44;;;;;;;25.98;12.27;;;;;;;-1.58;53.30;95884.34;5135488;27;20041;-73
2022/01/13 11:02:10;;;;;;;22.13;9.77;;;;;;;-3.09;55.38;95885.88;5135177;27;20027;-72
2022/01/13 11:04:37;;;;;;;19.65;9.30;;;;;;;-3.24;56.95;95887.63;5134730;27;20023;-72
2022/01/13 11:07:17;;;;;;;21.25;10.63;;;;;;;-3.58;58.82;95887.63;5135341;27;20037;-72
2022/01/13 11:09:55;;;;;;;19.75;9.40;;;;;;;-3.21;56.71;95897.53;5135371;27;20164;-71
2022/01/13 11:12:35;;;;;;;20.75;9.65;;;;;;;-3.64;58.15;95892.47;5135490;27;20012;-71
2022/01/13 11:15:06;;;;;;;23.95;10.30;;;;;;;-3.97;59.73;95883.31;5135444;27;20053;-73
2022/01/13 11:17:38;;;;;;;23.50;10.57;;;;;;;-4.19;61.45;95878.84;5135084;27;20126;-70
2022/01/13 11:20:06;;;;;;;23.13;9.63;;;;;;;-4.51;63.42;95873.81;5134940;27;20106;-70
2022/01/13 11:22:35;;;;;;;19.40;9.23;;;;;;;-4.78;63.64;95861.28;5135122;27;20043;-72
2022/01/13 11:25:06;;;;;;;24.85;10.77;;;;;;;-4.50;64.43;95859.44;5134900;27;20027;-71
2022/01/13 11:27:32;;;;;;;24.90;10.77;;;;;;;-4.92;65.76;95853.13;5135148;27;20034;-71
2022/01/13 11:29:58;;;;;;;20.67;10.05;;;;;;;-4.68;64.60;95851.22;5134836;27;20019;-73
2022/01/13 11:32:24;;;;;;;28.92;11.10;;;;;;;-4.94;65.38;95858.75;5134850;27;20091;-72
2022/01/13 11:34:50;;;;;;;20.60;8.77;;;;;;;-4.94;66.10;95848.16;5134687;27;20467;-72
2022/01/13 11:37:17;;;;;;;26.88;10.57;;;;;;;-5.00;66.12;95836.34;5133642;27;20023;-70
2022/01/13 11:39:45;;;;;;;22.52;10.75;;;;;;;-4.54;65.89;95837.44;5134686;27;20084;-71
2022/01/13 11:42:12;;;;;;;23.08;10.70;;;;;;;-4.59;65.35;95841.16;5133425;27;20025;-71
2022/01/13 11:44:39;;;;;;;27.05;12.02;;;;;;;-4.29;65.14;95854.47;5134454;27;20051;-71
2022/01/13 11:47:20;;;;;;;24.88;10.90;;;;;;;-4.47;66.14;95842.81;5134641;27;20038;-71
2022/01/13 11:54:38;;;;;;;20.90;9.68;;;;;;;-4.69;67.38;95839.88;5134537;27;20023;-71
2022/01/13 11:57:12;;;;;;;23.80;11.57;;;;;;;-4.96;67.22;95847.75;5133468;27;20015;-72
2022/01/13 11:59:39;;;;;;;27.25;10.55;;;;;;;-4.65;67.54;95853.16;5134548;27;20060;-72